createdAt,value
2022-10-17T00:00:57.317Z,14.38
2022-10-17T00:03:00.044Z,14.32
2022-10-17T00:05:04.576Z,14.28
2022-10-17T00:07:07.219Z,14.26
2022-10-17T00:09:10.274Z,14.25
2022-10-17T00:11:15.661Z,14.41
2022-10-17T00:13:18.283Z,14.35
2022-10-17T00:15:22.185Z,14.21
2022-10-17T00:17:25.208Z,14.20
2022-10-17T00:19:28.086Z,14.21
2022-10-17T00:21:32.147Z,14.23
2022-10-17T00:23:34.978Z,14.26
2022-10-17T00:25:37.691Z,14.23
2022-10-17T00:27:42.364Z,14.19
2022-10-17T00:29:49.303Z,14.17
2022-10-17T00:31:55.639Z,14.11
2022-10-17T00:33:58.293Z,14.14
2022-10-17T00:36:07.263Z,14.05
2022-10-17T00:38:11.248Z,14.07
2022-10-17T00:40:13.971Z,14.01
2022-10-17T00:42:17.129Z,14.04
2022-10-17T00:44:57.302Z,14.07
2022-10-17T00:47:01.831Z,14.07
2022-10-17T00:49:07.959Z,13.83
2022-10-17T00:51:10.670Z,14.02
2022-10-17T00:53:16.096Z,13.87
2022-10-17T00:55:22.724Z,14.02
2022-10-17T00:57:25.797Z,13.95
2022-10-17T00:59:29.899Z,13.87
2022-10-17T01:01:32.580Z,13.80
2022-10-17T01:03:35.294Z,13.77
2022-10-17T01:05:38.768Z,13.84
2022-10-17T01:07:42.748Z,13.87
2022-10-17T01:09:48.135Z,13.80
2022-10-17T01:11:56.806Z,13.79
2022-10-17T01:14:07.458Z,13.68
2022-10-17T01:16:15.268Z,13.65
2022-10-17T01:18:30.224Z,13.66
2022-10-17T01:21:11.403Z,13.69
2022-10-17T01:23:37.831Z,13.61
2022-10-17T01:25:53.206Z,13.56
2022-10-17T01:28:19.886Z,13.63
2022-10-17T01:30:37.725Z,13.70
2022-10-17T01:32:48.465Z,13.66
2022-10-17T01:34:56.787Z,13.62
2022-10-17T01:37:05.254Z,13.69
2022-10-17T01:39:16.066Z,13.73
2022-10-17T01:41:29.863Z,13.67
2022-10-17T01:43:38.292Z,13.56
2022-10-17T01:45:46.214Z,13.59
2022-10-17T01:47:53.949Z,13.59
2022-10-17T01:50:00.986Z,13.57
2022-10-17T01:52:08.662Z,13.56
2022-10-17T01:54:15.839Z,13.62
2022-10-17T01:56:21.531Z,13.61
2022-10-17T01:58:29.891Z,13.62
2022-10-17T02:00:33.967Z,13.64
2022-10-17T02:02:37.705Z,13.59
2022-10-17T02:04:42.555Z,13.62
2022-10-17T02:06:45.201Z,13.55
2022-10-17T02:08:49.584Z,13.59
2022-10-17T02:10:58.520Z,13.63
2022-10-17T02:13:09.994Z,13.60
2022-10-17T02:15:48.615Z,13.62
2022-10-17T02:18:06.922Z,13.70
2022-10-17T02:20:21.163Z,13.71
2022-10-17T02:22:33.941Z,13.66
2022-10-17T02:24:46.171Z,13.61
2022-10-17T02:26:56.369Z,13.61
2022-10-17T02:29:08.225Z,13.54
2022-10-17T02:31:16.542Z,13.57
2022-10-17T02:33:24.143Z,13.59
2022-10-17T02:35:31.913Z,13.60
2022-10-17T02:37:35.498Z,13.60
2022-10-17T02:39:39.540Z,13.60
2022-10-17T02:41:43.363Z,13.57
2022-10-17T02:43:48.254Z,13.56
2022-10-17T02:45:52.564Z,13.57
2022-10-17T02:48:00.099Z,13.65
2022-10-17T02:50:03.048Z,13.64
2022-10-17T02:52:13.223Z,13.58
2022-10-17T02:54:21.167Z,13.57
2022-10-17T02:56:26.871Z,13.60
2022-10-17T02:58:32.580Z,13.62
2022-10-17T03:00:36.114Z,13.64
2022-10-17T03:02:44.224Z,13.60
2022-10-17T03:04:47.820Z,13.56
2022-10-17T03:06:50.446Z,13.64
2022-10-17T03:08:54.432Z,13.64
2022-10-17T03:10:57.081Z,13.61
2022-10-17T03:12:59.771Z,13.84
2022-10-17T03:15:02.412Z,13.71
2022-10-17T03:17:05.002Z,13.75
2022-10-17T03:19:07.781Z,13.92
2022-10-17T03:21:10.406Z,14.10
2022-10-17T03:23:13.080Z,13.96
2022-10-17T03:25:17.275Z,14.10
2022-10-17T03:27:19.960Z,14.06
2022-10-17T03:29:22.896Z,14.07
2022-10-17T03:31:25.493Z,14.05
2022-10-17T03:33:29.279Z,13.87
2022-10-17T03:35:31.914Z,13.76
2022-10-17T03:37:34.561Z,13.65
2022-10-17T03:39:37.243Z,13.48
2022-10-17T03:41:41.171Z,13.51
2022-10-17T03:43:43.807Z,13.46
2022-10-17T03:45:46.397Z,13.35
2022-10-17T03:47:49.000Z,13.33
2022-10-17T03:49:53.461Z,13.31
2022-10-17T03:51:56.068Z,13.33
2022-10-17T03:53:58.651Z,13.31
2022-10-17T03:56:10.975Z,13.28
2022-10-17T03:58:14.973Z,13.22
2022-10-17T04:00:17.732Z,13.27
2022-10-17T04:02:20.368Z,13.14
2022-10-17T04:04:22.989Z,13.12
2022-10-17T04:06:25.670Z,13.09
2022-10-17T04:08:28.838Z,13.13
2022-10-17T04:10:31.445Z,13.13
2022-10-17T04:12:34.097Z,13.18
2022-10-17T04:14:38.551Z,12.98
2022-10-17T04:16:41.154Z,12.88
2022-10-17T04:18:44.113Z,12.86
2022-10-17T04:20:46.712Z,12.88
2022-10-17T04:22:49.391Z,12.81
2022-10-17T04:24:52.014Z,12.82
2022-10-17T04:26:54.987Z,12.74
2022-10-17T04:28:57.670Z,12.91
2022-10-17T04:31:03.365Z,12.68
2022-10-17T04:33:06.002Z,12.68
2022-10-17T04:35:09.539Z,12.82
2022-10-17T04:37:12.131Z,12.97
2022-10-17T04:39:14.923Z,13.02
2022-10-17T04:41:19.778Z,12.96
2022-10-17T04:43:22.386Z,12.81
2022-10-17T04:45:25.008Z,12.71
2022-10-17T04:47:28.991Z,12.79
2022-10-17T04:49:31.692Z,12.79
2022-10-17T04:51:34.321Z,12.66
2022-10-17T04:53:38.972Z,12.57
2022-10-17T04:55:41.580Z,12.67
2022-10-17T04:57:44.160Z,12.64
2022-10-17T04:59:46.754Z,12.83
2022-10-17T05:01:49.842Z,12.82
2022-10-17T05:03:54.497Z,12.63
2022-10-17T05:05:57.099Z,12.71
2022-10-17T05:07:59.721Z,12.74
2022-10-17T05:10:02.597Z,12.77
2022-10-17T05:12:08.014Z,12.83
2022-10-17T05:14:12.924Z,12.87
2022-10-17T05:16:15.543Z,12.63
2022-10-17T05:18:18.102Z,12.67
2022-10-17T05:20:22.059Z,12.78
2022-10-17T05:22:24.635Z,12.80
2022-10-17T05:24:27.210Z,12.89
2022-10-17T05:26:29.844Z,12.88
2022-10-17T05:28:32.461Z,12.79
2022-10-17T05:30:36.867Z,12.96
2022-10-17T05:32:40.397Z,12.97
2022-10-17T05:34:42.978Z,12.91
2022-10-17T05:36:46.999Z,12.95
2022-10-17T05:38:51.026Z,13.13
2022-10-17T05:40:57.667Z,13.02
2022-10-17T05:43:00.297Z,12.90
2022-10-17T05:45:02.900Z,13.11
2022-10-17T05:47:05.499Z,13.15
2022-10-17T05:49:14.929Z,13.02
2022-10-17T05:51:30.744Z,13.06
2022-10-17T05:53:36.804Z,13.15
2022-10-17T05:55:39.427Z,12.97
2022-10-17T05:57:42.076Z,12.90
2022-10-17T05:59:44.732Z,13.14
2022-10-17T06:01:47.419Z,12.74
2022-10-17T06:03:50.047Z,12.89
2022-10-17T06:05:52.822Z,13.00
2022-10-17T06:07:58.237Z,13.04
2022-10-17T06:10:06.052Z,13.07
2022-10-17T06:12:09.041Z,12.89
2022-10-17T06:14:11.711Z,13.03
2022-10-17T06:16:14.400Z,12.89
2022-10-17T06:18:17.048Z,12.86
2022-10-17T06:20:19.665Z,12.91
2022-10-17T06:22:22.288Z,12.91
2022-10-17T06:24:24.926Z,13.03
2022-10-17T06:26:28.892Z,12.84
2022-10-17T06:28:31.627Z,12.84
2022-10-17T06:30:34.289Z,12.93
2022-10-17T06:32:36.917Z,12.93
2022-10-17T06:34:39.570Z,12.86
2022-10-17T06:36:42.179Z,12.66
2022-10-17T06:38:44.793Z,12.64
2022-10-17T06:40:47.465Z,12.68
2022-10-17T06:42:51.425Z,12.71
2022-10-17T06:44:54.075Z,12.82
2022-10-17T06:46:56.809Z,12.79
2022-10-17T06:48:59.465Z,12.83
2022-10-17T06:51:02.623Z,12.89
2022-10-17T06:53:05.392Z,12.72
2022-10-17T06:55:08.504Z,12.77
2022-10-17T06:57:11.391Z,12.91
2022-10-17T06:59:16.564Z,12.99
2022-10-17T07:01:19.558Z,13.03
2022-10-17T07:03:22.192Z,13.15
2022-10-17T07:05:24.910Z,13.33
2022-10-17T07:07:27.859Z,13.28
2022-10-17T07:09:31.069Z,13.25
2022-10-17T07:11:35.277Z,13.17
2022-10-17T07:13:39.289Z,13.24
2022-10-17T07:15:44.161Z,13.37
2022-10-17T07:17:49.465Z,13.46
2022-10-17T07:19:52.146Z,13.58
2022-10-17T07:21:55.059Z,13.74
2022-10-17T07:23:57.757Z,13.81
2022-10-17T07:26:01.391Z,14.03
2022-10-17T07:28:04.207Z,14.28
2022-10-17T07:30:08.348Z,14.44
2022-10-17T07:32:12.326Z,14.56
2022-10-17T07:34:14.941Z,14.73
2022-10-17T07:36:18.124Z,14.93
2022-10-17T07:38:20.800Z,14.90
2022-10-17T07:40:23.480Z,15.05
2022-10-17T07:42:26.113Z,15.29
2022-10-17T07:44:28.738Z,15.16
2022-10-17T07:46:31.369Z,15.44
2022-10-17T07:48:35.379Z,15.55
2022-10-17T07:50:38.074Z,15.43
2022-10-17T07:52:43.091Z,15.42
2022-10-17T07:54:45.693Z,15.43
2022-10-17T07:56:50.694Z,15.68
2022-10-17T07:58:54.152Z,15.82
2022-10-17T08:00:56.926Z,15.98
2022-10-17T08:02:59.636Z,16.27
2022-10-17T08:05:03.673Z,16.54
2022-10-17T08:07:19.711Z,17.17
2022-10-17T08:09:24.425Z,17.21
2022-10-17T08:11:27.227Z,17.61
2022-10-17T08:13:29.832Z,17.48
2022-10-17T08:15:32.630Z,17.81
2022-10-17T08:17:36.013Z,18.11
2022-10-17T08:19:40.350Z,17.69
2022-10-17T08:21:46.857Z,17.80
2022-10-17T08:23:49.491Z,17.88
2022-10-17T08:25:52.140Z,17.78
2022-10-17T08:27:54.775Z,17.68
2022-10-17T08:29:57.371Z,17.46
2022-10-17T08:32:01.425Z,17.77
2022-10-17T08:34:05.014Z,17.85
2022-10-17T08:36:09.082Z,18.19
2022-10-17T08:38:13.509Z,18.80
2022-10-17T08:40:20.438Z,19.40
2022-10-17T08:42:42.731Z,19.37
2022-10-17T08:44:52.864Z,19.96
2022-10-17T08:47:00.474Z,21.12
2022-10-17T08:49:10.038Z,20.90
2022-10-17T08:51:18.222Z,20.70
2022-10-17T08:53:25.902Z,21.45
2022-10-17T08:55:33.266Z,22.42
2022-10-17T08:57:36.070Z,21.76
2022-10-17T08:59:38.695Z,22.07
2022-10-17T09:01:47.043Z,22.42
2022-10-17T09:04:03.634Z,21.48
2022-10-17T09:06:20.500Z,22.14
2022-10-17T09:08:36.638Z,22.25
2022-10-17T09:10:52.163Z,21.49
2022-10-17T09:13:07.821Z,21.88
2022-10-17T09:15:41.608Z,21.94
2022-10-17T09:17:52.516Z,21.54
2022-10-17T09:20:03.190Z,22.79
2022-10-17T09:22:10.294Z,22.35
2022-10-17T09:24:18.959Z,21.93
2022-10-17T09:26:22.294Z,22.84
2022-10-17T09:28:30.300Z,24.70
2022-10-17T09:30:46.156Z,25.49
2022-10-17T09:32:49.352Z,24.94
2022-10-17T09:34:53.037Z,25.49
2022-10-17T09:36:56.123Z,22.80
2022-10-17T09:39:02.516Z,23.86
2022-10-17T09:41:39.279Z,23.64
2022-10-17T09:43:36.987Z,24.51
2022-10-17T09:45:47.138Z,22.65
2022-10-17T09:48:00.918Z,23.91
2022-10-17T09:50:04.796Z,23.33
2022-10-17T09:52:14.572Z,24.01
2022-10-17T09:54:23.268Z,23.38
2022-10-17T09:56:27.308Z,24.01
2022-10-17T09:58:41.635Z,23.74
2022-10-17T10:00:47.381Z,24.65
2022-10-17T10:02:50.050Z,23.17
2022-10-17T10:05:06.645Z,22.69
2022-10-17T10:07:13.212Z,21.71
2022-10-17T10:09:22.571Z,22.53
2022-10-17T10:11:45.089Z,22.26
2022-10-17T10:13:49.851Z,22.51
2022-10-17T10:15:52.533Z,23.27
2022-10-17T10:17:55.128Z,24.03
2022-10-17T10:19:57.779Z,24.90
2022-10-17T10:22:02.013Z,23.79
2022-10-17T10:24:07.630Z,22.97
2022-10-17T10:26:31.069Z,23.18
2022-10-17T10:28:36.126Z,22.87
2022-10-17T10:30:39.964Z,22.05
2022-10-17T10:32:48.264Z,22.82
2022-10-17T10:34:54.145Z,23.08
2022-10-17T10:37:02.022Z,21.87
2022-10-17T10:39:05.348Z,21.95
2022-10-17T10:41:10.084Z,21.64
2022-10-17T10:43:25.016Z,21.42
2022-10-17T10:45:46.949Z,21.60
2022-10-17T10:47:53.409Z,21.97
2022-10-17T10:50:16.860Z,22.02
2022-10-17T10:52:28.416Z,22.03
2022-10-17T10:54:35.522Z,21.97
2022-10-17T10:56:39.963Z,21.83
2022-10-17T10:58:52.573Z,21.72
2022-10-17T11:00:57.508Z,21.79
2022-10-17T11:03:10.583Z,21.67
2022-10-17T11:05:21.882Z,21.80
2022-10-17T11:07:29.280Z,21.96
2022-10-17T11:09:47.561Z,22.27
2022-10-17T11:11:53.537Z,22.30
2022-10-17T11:14:01.433Z,22.09
2022-10-17T11:16:22.828Z,21.81
2022-10-17T11:18:29.219Z,22.39
2022-10-17T11:20:35.215Z,22.48
2022-10-17T11:22:43.165Z,22.49
2022-10-17T11:24:56.938Z,22.74
2022-10-17T11:27:01.685Z,23.01
2022-10-17T11:29:08.101Z,22.85
2022-10-17T11:31:14.479Z,23.04
2022-10-17T11:33:21.407Z,23.40
2022-10-17T11:35:28.838Z,23.62
2022-10-17T11:37:35.271Z,23.81
2022-10-17T11:41:55.447Z,24.00
2022-10-17T11:44:02.469Z,24.11
2022-10-17T11:46:15.955Z,24.15
2022-10-17T11:48:23.235Z,24.19
2022-10-17T11:52:57.080Z,24.27
2022-10-17T11:55:04.755Z,24.41
2022-10-17T11:57:35.966Z,24.43
2022-10-17T11:59:55.337Z,24.52
2022-10-17T12:02:06.118Z,24.68
2022-10-17T12:04:25.931Z,24.97
2022-10-17T12:06:44.051Z,24.78
2022-10-17T12:08:53.901Z,25.21
2022-10-17T12:11:01.871Z,25.21
2022-10-17T12:13:38.093Z,25.57
2022-10-17T12:15:44.674Z,25.56
2022-10-17T12:17:56.723Z,25.96
2022-10-17T12:20:27.211Z,25.97
2022-10-17T12:22:29.874Z,25.96
2022-10-17T12:24:40.187Z,26.22
2022-10-17T12:26:42.852Z,26.12
2022-10-17T12:28:47.543Z,26.20
2022-10-17T12:30:52.816Z,26.11
2022-10-17T12:33:08.200Z,26.07
2022-10-17T12:35:21.711Z,25.61
2022-10-17T12:38:01.864Z,26.06
2022-10-17T12:40:05.287Z,26.08
2022-10-17T12:42:31.669Z,25.99
2022-10-17T12:44:38.724Z,25.63
2022-10-17T12:46:51.935Z,25.18
2022-10-17T12:49:04.622Z,25.54
2022-10-17T12:53:41.480Z,26.15
2022-10-17T12:55:44.124Z,26.07
2022-10-17T12:57:56.526Z,26.22
2022-10-17T12:59:59.684Z,26.71
2022-10-17T13:02:04.445Z,26.37
2022-10-17T13:04:11.677Z,26.41
2022-10-17T13:06:20.923Z,25.88
2022-10-17T13:08:29.620Z,26.30
2022-10-17T13:10:35.854Z,26.14
2022-10-17T13:12:41.335Z,26.52
2022-10-17T13:14:46.987Z,26.36
2022-10-17T13:16:54.916Z,26.27
2022-10-17T13:18:58.357Z,26.24
2022-10-17T13:21:04.828Z,26.38
2022-10-17T13:23:07.457Z,26.31
2022-10-17T13:25:15.757Z,26.59
2022-10-17T13:27:25.574Z,26.53
2022-10-17T13:29:30.827Z,25.88
2022-10-17T13:31:35.194Z,26.27
2022-10-17T13:33:40.461Z,26.32
2022-10-17T13:38:08.058Z,26.35
2022-10-17T13:40:44.037Z,26.10
2022-10-17T13:42:42.289Z,25.50
2022-10-17T13:44:45.184Z,24.37
2022-10-17T13:46:48.039Z,24.89
2022-10-17T13:48:50.723Z,24.21
2022-10-17T13:50:57.197Z,23.86
2022-10-17T13:53:27.517Z,23.49
2022-10-17T13:55:30.111Z,23.28
2022-10-17T13:57:33.322Z,23.30
2022-10-17T13:59:41.259Z,23.42
2022-10-17T14:01:44.069Z,23.35
2022-10-17T14:03:49.882Z,23.32
2022-10-17T14:06:09.486Z,23.38
2022-10-17T14:08:22.811Z,23.17
2022-10-17T14:10:31.694Z,23.11
2022-10-17T14:12:35.038Z,23.17
2022-10-17T14:15:05.192Z,23.51
2022-10-17T14:17:02.327Z,23.28
2022-10-17T14:19:06.163Z,23.51
2022-10-17T14:23:34.509Z,22.91
2022-10-17T14:25:41.635Z,22.97
2022-10-17T14:27:58.021Z,22.89
2022-10-17T14:30:03.647Z,22.79
2022-10-17T14:32:09.446Z,23.06
2022-10-17T14:34:23.138Z,22.89
2022-10-17T14:36:34.880Z,23.07
2022-10-17T14:38:37.753Z,23.14
2022-10-17T14:40:50.897Z,23.17
2022-10-17T14:42:55.501Z,23.37
2022-10-17T14:45:04.699Z,22.97
2022-10-17T14:47:38.081Z,22.86
2022-10-17T14:49:37.305Z,22.91
2022-10-17T14:51:50.508Z,22.93
2022-10-17T14:54:06.149Z,22.63
2022-10-17T14:56:23.828Z,22.57
2022-10-17T14:58:28.681Z,22.68
2022-10-17T15:00:31.337Z,22.76
2022-10-17T15:02:34.300Z,22.37
2022-10-17T15:04:37.086Z,22.48
2022-10-17T15:06:40.508Z,22.66
2022-10-17T15:10:51.890Z,22.51
2022-10-17T15:12:59.369Z,22.52
2022-10-17T15:15:12.559Z,22.46
2022-10-17T15:17:18.425Z,22.27
2022-10-17T15:19:21.039Z,22.13
2022-10-17T15:21:38.165Z,22.18
2022-10-17T15:23:43.655Z,22.21
2022-10-17T15:25:46.401Z,22.11
2022-10-17T15:27:49.044Z,22.07
2022-10-17T15:29:53.836Z,22.07
2022-10-17T15:31:56.420Z,22.20
2022-10-17T15:33:59.003Z,22.07
2022-10-17T15:36:01.625Z,21.97
2022-10-17T15:38:07.454Z,21.68
2022-10-17T15:40:14.897Z,21.95
2022-10-17T15:42:17.510Z,21.89
2022-10-17T15:44:20.158Z,21.92
2022-10-17T15:46:26.300Z,21.98
2022-10-17T15:48:32.012Z,21.71
2022-10-17T15:50:34.619Z,21.76
2022-10-17T15:52:37.183Z,21.70
2022-10-17T15:54:39.855Z,21.44
2022-10-17T15:56:43.347Z,21.48
2022-10-17T15:58:46.079Z,21.57
2022-10-17T16:00:49.661Z,21.22
2022-10-17T16:02:53.668Z,21.13
2022-10-17T16:04:56.281Z,21.33
2022-10-17T16:06:58.901Z,20.93
2022-10-17T16:09:01.520Z,20.70
2022-10-17T16:11:04.154Z,20.70
2022-10-17T16:13:07.118Z,20.70
2022-10-17T16:15:14.939Z,20.68
2022-10-17T16:17:18.484Z,20.67
2022-10-17T16:19:23.592Z,20.65
2022-10-17T16:21:28.628Z,20.41
2022-10-17T16:23:31.254Z,20.47
2022-10-17T16:25:34.013Z,20.23
2022-10-17T16:27:37.653Z,19.97
2022-10-17T16:29:40.279Z,20.03
2022-10-17T16:31:44.891Z,19.77
2022-10-17T16:33:48.222Z,19.45
2022-10-17T16:35:52.314Z,19.30
2022-10-17T16:37:56.360Z,19.12
2022-10-17T16:39:59.267Z,19.07
2022-10-17T16:42:01.896Z,19.31
2022-10-17T16:44:06.477Z,19.32
2022-10-17T16:46:09.303Z,19.32
2022-10-17T16:48:12.195Z,19.43
2022-10-17T16:50:15.491Z,19.55
2022-10-17T16:52:19.726Z,19.45
2022-10-17T16:54:22.332Z,19.23
2022-10-17T16:56:29.606Z,19.44
2022-10-17T16:58:32.386Z,19.54
2022-10-17T17:00:35.868Z,19.53
2022-10-17T17:02:38.768Z,19.39
2022-10-17T17:04:42.809Z,19.30
2022-10-17T17:06:46.593Z,19.26
2022-10-17T17:08:51.132Z,19.20
2022-10-17T17:10:55.353Z,19.10
2022-10-17T17:12:58.231Z,19.07
2022-10-17T17:15:00.955Z,19.23
2022-10-17T17:17:03.586Z,19.06
2022-10-17T17:19:08.889Z,19.13
2022-10-17T17:21:14.951Z,19.14
2022-10-17T17:23:17.582Z,19.05
2022-10-17T17:25:21.963Z,19.01
2022-10-17T17:27:25.174Z,18.98
2022-10-17T17:29:28.210Z,18.74
2022-10-17T17:31:32.535Z,18.88
2022-10-17T17:33:35.150Z,18.90
2022-10-17T17:35:40.829Z,18.84
2022-10-17T17:37:43.504Z,18.76
2022-10-17T17:39:46.129Z,18.72
2022-10-17T17:41:50.299Z,18.81
2022-10-17T17:43:53.090Z,18.86
2022-10-17T17:45:56.538Z,18.77
2022-10-17T17:47:59.105Z,18.81
2022-10-17T17:50:03.189Z,18.85
2022-10-17T17:52:05.948Z,18.80
2022-10-17T17:54:11.771Z,18.79
2022-10-17T17:56:16.735Z,18.86
2022-10-17T17:58:20.694Z,18.89
2022-10-17T18:00:23.359Z,18.84
2022-10-17T18:02:26.765Z,18.78
2022-10-17T18:04:29.571Z,18.80
2022-10-17T18:06:36.022Z,18.71
2022-10-17T18:08:39.583Z,18.67
2022-10-17T18:10:42.343Z,18.65
2022-10-17T18:12:46.530Z,18.69
2022-10-17T18:14:50.459Z,18.57
2022-10-17T18:16:53.205Z,18.36
2022-10-17T18:19:04.053Z,18.32
2022-10-17T18:21:11.790Z,18.29
2022-10-17T18:23:14.362Z,18.27
2022-10-17T18:25:17.233Z,18.21
2022-10-17T18:27:19.872Z,18.12
2022-10-17T18:29:23.448Z,18.17
2022-10-17T18:31:32.066Z,18.20
2022-10-17T18:33:35.607Z,18.10
2022-10-17T18:35:38.182Z,18.09
2022-10-17T18:39:44.962Z,17.97
2022-10-17T18:41:47.649Z,18.01
2022-10-17T18:43:51.775Z,18.04
2022-10-17T18:45:57.377Z,17.98
2022-10-17T18:48:01.398Z,18.16
2022-10-17T18:50:04.353Z,18.14
2022-10-17T18:52:06.996Z,17.99
2022-10-17T18:54:14.269Z,17.94
2022-10-17T18:56:17.429Z,17.89
2022-10-17T18:58:21.622Z,17.77
2022-10-17T19:00:24.215Z,17.78
2022-10-17T19:02:27.788Z,17.64
2022-10-17T19:04:31.839Z,17.51
2022-10-17T19:06:35.162Z,17.46
2022-10-17T19:08:39.000Z,17.41
2022-10-17T19:10:42.431Z,17.33
2022-10-17T19:12:45.064Z,17.42
2022-10-17T19:14:49.952Z,17.10
2022-10-17T19:16:52.768Z,17.07
2022-10-17T19:18:57.352Z,17.07
2022-10-17T19:21:04.415Z,16.92
2022-10-17T19:23:06.995Z,16.85
2022-10-17T19:25:10.504Z,16.96
2022-10-17T19:27:13.095Z,16.94
2022-10-17T19:29:16.986Z,16.94
2022-10-17T19:31:25.422Z,16.81
2022-10-17T19:33:29.561Z,16.78
2022-10-17T19:35:32.209Z,16.84
2022-10-17T19:37:36.137Z,16.74
2022-10-17T19:39:39.048Z,16.74
2022-10-17T19:41:42.291Z,16.75
2022-10-17T19:43:45.599Z,16.67
2022-10-17T19:45:55.838Z,16.40
2022-10-17T19:47:58.804Z,16.48
2022-10-17T19:50:01.612Z,16.56
2022-10-17T19:52:04.419Z,16.40
2022-10-17T19:54:08.401Z,16.27
2022-10-17T19:56:11.575Z,16.23
2022-10-17T19:58:14.317Z,16.21
2022-10-17T20:00:17.070Z,16.15
2022-10-17T20:02:19.704Z,16.12
2022-10-17T20:04:23.951Z,16.13
2022-10-17T20:06:27.207Z,16.19
2022-10-17T20:08:29.775Z,16.13
2022-10-17T20:10:34.278Z,16.20
2022-10-17T20:12:36.922Z,16.14
2022-10-17T20:14:41.103Z,16.19
2022-10-17T20:16:44.688Z,16.30
2022-10-17T20:18:47.338Z,16.37
2022-10-17T20:20:49.967Z,16.49
2022-10-17T20:22:52.626Z,16.47
2022-10-17T20:24:55.387Z,16.73
2022-10-17T20:26:59.359Z,16.64
2022-10-17T20:29:02.808Z,16.63
2022-10-17T20:31:07.306Z,16.62
2022-10-17T20:33:09.888Z,16.99
2022-10-17T20:35:12.588Z,16.96
2022-10-17T20:37:15.524Z,16.92
2022-10-17T20:39:20.297Z,16.84
2022-10-17T20:41:23.348Z,16.82
2022-10-17T20:43:27.299Z,16.81
2022-10-17T20:45:43.778Z,16.86
2022-10-17T20:47:54.052Z,16.98
2022-10-17T20:49:56.878Z,16.98
2022-10-17T20:52:00.545Z,17.12
2022-10-17T20:54:03.690Z,16.87
2022-10-17T20:56:08.881Z,16.75
2022-10-17T20:58:13.236Z,16.61
2022-10-17T21:00:17.588Z,16.61
2022-10-17T21:02:20.274Z,16.56
2022-10-17T21:06:47.528Z,16.29
2022-10-17T21:08:50.708Z,16.24
2022-10-17T21:10:53.321Z,16.15
2022-10-17T21:12:56.218Z,16.14
2022-10-17T21:14:59.291Z,16.08
2022-10-17T21:17:05.228Z,16.06
2022-10-17T21:19:08.186Z,16.03
2022-10-17T21:21:13.599Z,16.01
2022-10-17T21:23:16.218Z,15.76
2022-10-17T21:25:18.869Z,15.76
2022-10-17T21:27:21.516Z,15.74
2022-10-17T21:29:24.869Z,15.71
2022-10-17T21:31:28.675Z,15.61
2022-10-17T21:33:32.600Z,15.65
2022-10-17T21:35:35.231Z,15.63
2022-10-17T21:37:37.806Z,15.66
2022-10-17T21:39:40.475Z,15.85
2022-10-17T21:41:44.165Z,15.84
2022-10-17T21:43:47.097Z,15.85
2022-10-17T21:45:49.704Z,15.88
2022-10-17T21:48:11.715Z,15.77
2022-10-17T21:50:16.389Z,15.56
2022-10-17T21:52:18.984Z,15.46
2022-10-17T21:54:23.876Z,15.45
2022-10-17T21:56:30.661Z,15.42
2022-10-17T21:58:34.255Z,15.33
2022-10-17T22:00:36.825Z,15.39
2022-10-17T22:02:39.387Z,15.29
2022-10-17T22:04:41.991Z,15.32
2022-10-17T22:06:47.408Z,15.36
2022-10-17T22:08:50.461Z,15.43
2022-10-17T22:10:53.241Z,15.33
2022-10-17T22:12:55.844Z,15.31
2022-10-17T22:14:58.427Z,15.28
2022-10-17T22:17:01.475Z,15.21
2022-10-17T22:19:06.877Z,15.19
2022-10-17T22:21:13.095Z,15.18
2022-10-17T22:23:17.137Z,15.15
2022-10-17T22:25:19.824Z,15.10
2022-10-17T22:27:22.450Z,15.16
2022-10-17T22:29:25.152Z,15.14
2022-10-17T22:31:28.044Z,15.07
2022-10-17T22:33:32.579Z,15.06
2022-10-17T22:35:35.202Z,15.12
2022-10-17T22:37:37.832Z,15.12
2022-10-17T22:39:41.827Z,15.09
2022-10-17T22:41:44.605Z,15.10
2022-10-17T22:43:47.257Z,15.08
2022-10-17T22:45:53.956Z,14.88
2022-10-17T22:47:57.004Z,14.90
2022-10-17T22:49:59.559Z,14.98
2022-10-17T22:52:02.127Z,14.93
2022-10-17T22:54:04.874Z,15.00
2022-10-17T22:56:11.594Z,14.98
2022-10-17T22:58:14.171Z,14.97
2022-10-17T23:00:17.870Z,14.97
2022-10-17T23:02:20.543Z,14.87
2022-10-17T23:04:23.164Z,14.88
2022-10-17T23:06:25.844Z,14.90
2022-10-17T23:08:29.433Z,14.91
2022-10-17T23:10:32.152Z,14.76
2022-10-17T23:12:36.106Z,14.60
2022-10-17T23:14:38.811Z,14.67
2022-10-17T23:16:41.432Z,14.70
2022-10-17T23:18:44.610Z,14.67
2022-10-17T23:20:47.642Z,14.67
2022-10-17T23:22:50.235Z,14.71
2022-10-17T23:24:53.029Z,14.74
2022-10-17T23:26:55.763Z,14.70
2022-10-17T23:28:59.754Z,14.67
2022-10-17T23:31:10.573Z,14.47
2022-10-17T23:33:14.314Z,14.42
2022-10-17T23:35:16.995Z,14.57
2022-10-17T23:37:19.903Z,14.86
2022-10-17T23:39:22.568Z,14.74
2022-10-17T23:41:25.209Z,14.74
2022-10-17T23:43:28.255Z,14.58
2022-10-17T23:45:34.753Z,14.50
2022-10-17T23:47:39.631Z,14.38
2022-10-17T23:49:42.278Z,14.40
2022-10-17T23:51:44.977Z,14.40
2022-10-17T23:53:47.685Z,14.34
2022-10-17T23:55:50.583Z,14.32
2022-10-17T23:57:53.252Z,14.18
2022-10-17T23:59:56.376Z,14.14
